Herentals, Belgium
Current Conditions -  °F | °C
As of 12:54 AM on Thursday 27 Nov 2014 (Local Time) from EBDT Reporting Station
Broken Clouds Broken Clouds  
Wind Chill:   Ceiling: 1700
Heat Index:   Visibility: 4mi
Dew Point:   Wind: 6mph
Humidity: 93%   Direction: 140°SE
Pressure: 29.83"   Gusts: NA
Location:  51.18°N, 4.83°E
Report Text: EBDT 262354Z AUTO 14005KT 7000 FEW012/// BKN017/// BKN024/// 08/07 Q1010 WHT
Loading
Personal Weather Stations






























Interactive Weather Map New forecast layout! Learn more

10-Day Weather Forecast

Advertisements
Track Severe Weather on mobile